Time;durP1;ratioP1;P1;durP2;ratioP2;P2;SDS_P1;SDS_P2;PMS_P1;PMS_P2;Temp;Humidity;BMP_temperature;BMP_pressure;BME280_temperature;BME280_humidity;BME280_pressure;Samples;Min_cycle;Max_cycle;Signal;HPM_P1;HPM_P2
2022/01/25 00:08:41;;;;;;;20.27;18.17;;;;;;;;;;4991415;28;20728;-36
2022/01/25 00:28:05;;;;;;;46.13;21.27;;;;;;;;;;4992191;28;20239;-35
2022/01/25 00:29:59;;;;;;;28.88;19.08;;;;;;;;;;4981836;28;20235;-34
2022/01/25 00:32:26;;;;;;;29.80;20.02;;;;;;;;;;4991898;28;20811;-34
2022/01/25 00:34:53;;;;;;;24.90;19.38;;;;;;;;;;4993014;28;20247;-33
2022/01/25 00:37:20;;;;;;;27.92;19.05;;;;;;;;;;4992154;28;20228;-33
2022/01/25 00:39:47;;;;;;;26.58;19.70;;;;;;;;;;4992457;28;20236;-34
2022/01/25 00:42:14;;;;;;;27.10;19.55;;;;;;;;;;4991517;28;20260;-35
2022/01/25 00:44:46;;;;;;;23.27;17.95;;;;;;;;;;4988310;28;20347;-34
2022/01/25 00:47:15;;;;;;;22.48;19.10;;;;;;;;;;5008914;28;20249;-35
2022/01/25 00:49:43;;;;;;;21.38;19.02;;;;;;;;;;4998096;28;20232;-34
2022/01/25 00:54:58;;;;;;;20.23;17.83;;;;;;;;;;4992823;28;20730;-34
2022/01/25 00:57:26;;;;;;;20.92;18.80;;;;;;;;;;4992542;28;20242;-34
2022/01/25 00:59:53;;;;;;;21.13;18.02;;;;;;;;;;4991950;28;20231;-35
2022/01/25 01:02:20;;;;;;;20.75;18.52;;;;;;;;;;4994019;28;20319;-34
2022/01/25 01:04:50;;;;;;;21.65;17.55;;;;;;;;;;4992048;28;20339;-34
2022/01/25 01:07:17;;;;;;;24.90;18.70;;;;;;;;;;4992341;28;20224;-33
2022/01/25 01:09:47;;;;;;;22.17;17.70;;;;;;;;;;4989394;28;20328;-35
2022/01/25 01:12:20;;;;;;;21.30;18.15;;;;;;;;;;4992514;28;20236;-34
2022/01/25 01:15:00;;;;;;;19.80;17.63;;;;;;;;;;4992631;28;20240;-35
2022/01/25 01:37:01;;;;;;;19.45;17.27;;;;;;;;;;4990136;28;21063;-33
2022/01/25 01:39:43;;;;;;;20.30;18.10;;;;;;;;;;4991371;28;20239;-35
2022/01/25 01:47:43;;;;;;;20.17;18.15;;;;;;;;;;5011146;28;20243;-34
2022/01/25 01:50:14;;;;;;;23.65;18.30;;;;;;;;;;4996623;28;20683;-33
2022/01/25 01:52:41;;;;;;;20.45;17.98;;;;;;;;;;4998762;28;20238;-34
2022/01/25 01:55:08;;;;;;;19.30;17.20;;;;;;;;;;4982653;28;20232;-33
2022/01/25 01:57:35;;;;;;;20.42;18.25;;;;;;;;;;4978839;28;20244;-33
2022/01/25 02:00:02;;;;;;;21.48;18.20;;;;;;;;;;5001610;28;20238;-35
2022/01/25 02:02:29;;;;;;;20.70;18.50;;;;;;;;;;4997673;28;20240;-35
2022/01/25 02:04:56;;;;;;;21.45;17.63;;;;;;;;;;4998396;28;20235;-35
2022/01/25 02:07:23;;;;;;;21.90;18.90;;;;;;;;;;4998549;28;20232;-35
2022/01/25 02:09:50;;;;;;;21.13;17.85;;;;;;;;;;4997930;28;20228;-34
2022/01/25 02:12:17;;;;;;;20.80;18.60;;;;;;;;;;4997916;28;20279;-34
2022/01/25 02:14:44;;;;;;;19.55;17.55;;;;;;;;;;4998263;28;20236;-35
2022/01/25 02:17:36;;;;;;;18.65;16.65;;;;;;;;;;5015735;28;20239;-36
2022/01/25 02:22:43;;;;;;;19.63;16.77;;;;;;;;;;4997381;28;20286;-35
2022/01/25 02:25:10;;;;;;;26.33;18.65;;;;;;;;;;4998200;28;20258;-35
2022/01/25 02:27:37;;;;;;;19.55;17.55;;;;;;;;;;4996433;28;20240;-34
2022/01/25 02:30:04;;;;;;;19.90;17.52;;;;;;;;;;4998174;28;20947;-35
2022/01/25 02:32:31;;;;;;;19.23;17.27;;;;;;;;;;5013712;28;20690;-34
2022/01/25 02:35:02;;;;;;;19.73;17.73;;;;;;;;;;4997769;28;20974;-34
2022/01/25 02:37:29;;;;;;;18.05;16.15;;;;;;;;;;4997906;28;20228;-33
2022/01/25 02:39:56;;;;;;;18.13;16.23;;;;;;;;;;4997396;28;20232;-34
2022/01/25 02:42:24;;;;;;;18.02;16.13;;;;;;;;;;4990278;28;20239;-34
2022/01/25 02:44:51;;;;;;;17.60;15.60;;;;;;;;;;4997312;28;20968;-33
2022/01/25 02:50:03;;;;;;;16.42;14.65;;;;;;;;;;4996552;28;20733;-34
2022/01/25 02:52:30;;;;;;;19.13;15.20;;;;;;;;;;4997646;28;20282;-34
2022/01/25 02:54:57;;;;;;;16.30;14.65;;;;;;;;;;4996909;28;20246;-36
2022/01/25 02:57:24;;;;;;;18.02;16.15;;;;;;;;;;4997747;28;20790;-33
2022/01/25 02:59:51;;;;;;;17.60;15.80;;;;;;;;;;4997886;28;20585;-34
2022/01/25 03:02:18;;;;;;;16.70;15.02;;;;;;;;;;4994207;28;20236;-34
2022/01/25 03:04:45;;;;;;;17.95;15.55;;;;;;;;;;4993976;28;20234;-34
2022/01/25 03:07:12;;;;;;;16.60;14.80;;;;;;;;;;4994677;28;20236;-35
2022/01/25 03:09:40;;;;;;;22.02;19.63;;;;;;;;;;4994176;28;20229;-34
2022/01/25 03:12:09;;;;;;;16.42;14.70;;;;;;;;;;4994060;28;20236;-34
2022/01/25 03:14:47;;;;;;;17.40;15.68;;;;;;;;;;4994146;28;20326;-34
2022/01/25 03:17:24;;;;;;;18.25;16.35;;;;;;;;;;4993439;28;20674;-33
2022/01/25 03:20:03;;;;;;;17.15;15.35;;;;;;;;;;4994303;28;20231;-34
2022/01/25 03:22:43;;;;;;;17.23;14.30;;;;;;;;;;4994107;28;20380;-34
2022/01/25 03:25:10;;;;;;;15.77;14.15;;;;;;;;;;4994193;28;20251;-35
2022/01/25 03:27:37;;;;;;;16.10;14.40;;;;;;;;;;4993744;28;20236;-34
2022/01/25 03:30:04;;;;;;;16.50;14.80;;;;;;;;;;4994459;28;20927;-35
2022/01/25 03:32:31;;;;;;;16.13;14.43;;;;;;;;;;4994013;28;20714;-34
2022/01/25 03:34:58;;;;;;;15.40;13.90;;;;;;;;;;4994337;28;20714;-34
2022/01/25 03:37:25;;;;;;;15.57;13.98;;;;;;;;;;4993237;28;20245;-34
2022/01/25 03:39:52;;;;;;;16.98;15.27;;;;;;;;;;4993825;28;20224;-36
2022/01/25 03:42:19;;;;;;;16.50;14.63;;;;;;;;;;4993648;28;20250;-34
2022/01/25 03:44:46;;;;;;;15.95;14.30;;;;;;;;;;4994270;28;20232;-35
2022/01/25 03:47:17;;;;;;;15.60;14.00;;;;;;;;;;5000415;28;20244;-34
2022/01/25 03:49:51;;;;;;;16.65;14.35;;;;;;;;;;4993266;28;20239;-34
2022/01/25 03:52:22;;;;;;;15.68;14.07;;;;;;;;;;4993809;28;20244;-33
2022/01/25 03:54:49;;;;;;;15.88;14.18;;;;;;;;;;4993856;28;20224;-33
2022/01/25 03:57:16;;;;;;;14.15;12.65;;;;;;;;;;4993875;28;20236;-34
2022/01/25 03:59:43;;;;;;;16.15;13.95;;;;;;;;;;4992805;28;20707;-33
2022/01/25 04:02:11;;;;;;;14.90;13.30;;;;;;;;;;4993530;28;20240;-34
2022/01/25 04:04:39;;;;;;;14.55;13.00;;;;;;;;;;4993436;28;20232;-34
2022/01/25 04:07:11;;;;;;;15.02;13.43;;;;;;;;;;4993006;28;20235;-33
2022/01/25 04:09:38;;;;;;;14.23;12.82;;;;;;;;;;4993156;28;21035;-33
2022/01/25 04:12:05;;;;;;;14.55;13.00;;;;;;;;;;4991452;28;20235;-36
2022/01/25 04:14:33;;;;;;;14.50;13.02;;;;;;;;;;4992024;28;20232;-33
2022/01/25 04:17:04;;;;;;;14.20;12.68;;;;;;;;;;4993574;28;20661;-34
2022/01/25 04:19:37;;;;;;;15.07;13.48;;;;;;;;;;4993192;28;20224;-35
2022/01/25 04:25:03;;;;;;;13.98;12.38;;;;;;;;;;4992185;28;20231;-35
2022/01/25 04:27:30;;;;;;;14.65;13.02;;;;;;;;;;4993278;28;21056;-35
2022/01/25 04:29:57;;;;;;;14.65;13.15;;;;;;;;;;4993318;28;20224;-34
2022/01/25 04:32:32;;;;;;;15.18;13.60;;;;;;;;;;5005697;28;20239;-34
2022/01/25 04:35:14;;;;;;;15.73;13.27;;;;;;;;;;4993134;28;20231;-33
2022/01/25 04:48:56;;;;;;;14.93;12.57;;;;;;;;;;5001167;28;20370;-33
2022/01/25 04:53:59;;;;;;;13.90;12.50;;;;;;;;;;4992968;28;20625;-35
2022/01/25 04:56:47;;;;;;;14.15;12.73;;;;;;;;;;4974046;28;20722;-34
2022/01/25 04:59:23;;;;;;;14.50;13.00;;;;;;;;;;4987860;28;21059;-33
2022/01/25 05:01:54;;;;;;;14.00;12.55;;;;;;;;;;4993196;28;20231;-34
2022/01/25 05:04:27;;;;;;;14.68;13.18;;;;;;;;;;4992694;28;20236;-35
2022/01/25 05:07:02;;;;;;;14.95;13.38;;;;;;;;;;4992152;28;20240;-35
2022/01/25 05:09:32;;;;;;;14.45;12.95;;;;;;;;;;4992449;28;20242;-35
2022/01/25 05:11:59;;;;;;;15.05;13.45;;;;;;;;;;4992581;28;20259;-33
2022/01/25 05:14:33;;;;;;;14.93;13.32;;;;;;;;;;4992633;28;21037;-33
2022/01/25 05:17:03;;;;;;;15.48;13.73;;;;;;;;;;4999984;28;20236;-35
2022/01/25 05:22:22;;;;;;;15.85;14.23;;;;;;;;;;4992628;28;20232;-34
2022/01/25 05:24:49;;;;;;;14.88;13.35;;;;;;;;;;4991421;28;20235;-33
2022/01/25 05:27:16;;;;;;;14.43;12.93;;;;;;;;;;4991483;28;20725;-35
2022/01/25 05:29:43;;;;;;;14.45;12.80;;;;;;;;;;4992475;28;21056;-34
2022/01/25 05:32:10;;;;;;;14.55;12.38;;;;;;;;;;5002437;28;20320;-33
2022/01/25 05:34:37;;;;;;;13.82;12.27;;;;;;;;;;4991935;28;20307;-33
2022/01/25 05:37:06;;;;;;;13.52;12.23;;;;;;;;;;4992436;28;20259;-33
2022/01/25 05:39:35;;;;;;;14.80;12.75;;;;;;;;;;4991156;28;20252;-34
2022/01/25 05:42:19;;;;;;;12.30;11.07;;;;;;;;;;4992495;28;20235;-34
2022/01/25 05:44:59;;;;;;;12.48;10.98;;;;;;;;;;4992052;28;20729;-35
2022/01/25 05:47:31;;;;;;;12.40;11.15;;;;;;;;;;5010621;28;20250;-34
2022/01/25 05:49:58;;;;;;;12.52;11.25;;;;;;;;;;4991103;28;20236;-34
2022/01/25 05:52:25;;;;;;;12.20;10.98;;;;;;;;;;4992124;28;20236;-35
2022/01/25 05:54:52;;;;;;;12.57;10.75;;;;;;;;;;4992038;28;20234;-35
2022/01/25 05:57:19;;;;;;;11.77;10.57;;;;;;;;;;4991775;28;20228;-35
2022/01/25 05:59:46;;;;;;;12.13;10.80;;;;;;;;;;4991859;28;20239;-35
2022/01/25 06:02:17;;;;;;;13.88;10.73;;;;;;;;;;4990948;28;20958;-34
2022/01/25 06:04:44;;;;;;;12.07;10.88;;;;;;;;;;4991751;28;20224;-36
2022/01/25 06:07:11;;;;;;;11.20;10.10;;;;;;;;;;4992092;28;20232;-35
2022/01/25 06:09:40;;;;;;;12.05;10.85;;;;;;;;;;4991698;28;20238;-34
2022/01/25 06:12:07;;;;;;;11.75;10.55;;;;;;;;;;4991111;28;20367;-34
2022/01/25 06:14:35;;;;;;;12.15;10.68;;;;;;;;;;4991352;28;20975;-35
2022/01/25 06:17:02;;;;;;;13.00;11.57;;;;;;;;;;4994672;28;20236;-34
2022/01/25 06:19:29;;;;;;;11.75;10.55;;;;;;;;;;4991905;28;20239;-35
2022/01/25 06:21:56;;;;;;;11.90;10.70;;;;;;;;;;4991694;28;20993;-36
2022/01/25 06:24:23;;;;;;;13.35;11.50;;;;;;;;;;4990180;28;20703;-33
2022/01/25 06:26:50;;;;;;;12.02;10.82;;;;;;;;;;4991489;28;20323;-34
2022/01/25 06:29:18;;;;;;;11.43;10.32;;;;;;;;;;4991374;28;20236;-33
2022/01/25 06:31:48;;;;;;;11.57;10.48;;;;;;;;;;5002593;28;20235;-34
2022/01/25 06:34:15;;;;;;;11.90;10.70;;;;;;;;;;4987928;28;20271;-35
2022/01/25 06:36:42;;;;;;;15.45;11.13;;;;;;;;;;4993086;28;20959;-34
2022/01/25 06:39:09;;;;;;;12.65;11.32;;;;;;;;;;4994375;28;20243;-34
2022/01/25 06:41:37;;;;;;;12.10;10.90;;;;;;;;;;4994720;28;20232;-34
2022/01/25 06:44:05;;;;;;;11.63;10.52;;;;;;;;;;4995080;28;20981;-35
2022/01/25 06:46:32;;;;;;;12.50;10.95;;;;;;;;;;4999432;28;20246;-35
2022/01/25 06:48:59;;;;;;;18.90;10.88;;;;;;;;;;5001290;28;20244;-34
2022/01/25 06:51:26;;;;;;;12.73;10.32;;;;;;;;;;4994368;28;20228;-35
2022/01/25 06:53:53;;;;;;;12.15;10.93;;;;;;;;;;4994741;28;20221;-33
2022/01/25 06:56:20;;;;;;;12.65;10.70;;;;;;;;;;4988856;28;20265;-35
2022/01/25 06:58:47;;;;;;;18.23;14.57;;;;;;;;;;4994580;28;20267;-35
2022/01/25 07:01:14;;;;;;;16.13;13.35;;;;;;;;;;4995505;28;20224;-34
2022/01/25 07:03:41;;;;;;;13.98;12.57;;;;;;;;;;4994305;28;20228;-34
2022/01/25 07:06:08;;;;;;;13.93;12.43;;;;;;;;;;4993866;28;20396;-33
2022/01/25 07:08:35;;;;;;;13.32;11.25;;;;;;;;;;4994175;28;20247;-34
2022/01/25 07:11:02;;;;;;;12.95;11.32;;;;;;;;;;4994464;28;20232;-35
2022/01/25 07:13:29;;;;;;;12.95;10.77;;;;;;;;;;4994313;28;20232;-34
2022/01/25 07:15:56;;;;;;;12.23;11.02;;;;;;;;;;5001455;28;20238;-34
2022/01/25 07:18:23;;;;;;;12.73;11.07;;;;;;;;;;4997988;28;20236;-34
2022/01/25 07:20:50;;;;;;;13.30;11.05;;;;;;;;;;4994224;28;20971;-32
2022/01/25 07:23:17;;;;;;;12.13;10.93;;;;;;;;;;4994004;28;20243;-34
2022/01/25 07:25:44;;;;;;;11.77;10.60;;;;;;;;;;4994258;28;20232;-34
2022/01/25 07:28:11;;;;;;;12.30;10.75;;;;;;;;;;4992932;28;20238;-33
2022/01/25 07:30:38;;;;;;;11.07;10.00;;;;;;;;;;4995430;28;20229;-33
2022/01/25 07:33:28;;;;;;;11.60;10.48;;;;;;;;;;4993641;28;20231;-34
2022/01/25 07:36:09;;;;;;;12.30;11.10;;;;;;;;;;4988898;28;20232;-33
2022/01/25 07:38:42;;;;;;;11.05;9.98;;;;;;;;;;4993737;28;20232;-33
2022/01/25 07:41:15;;;;;;;12.95;10.55;;;;;;;;;;4991619;28;20715;-34
2022/01/25 07:43:45;;;;;;;13.13;11.45;;;;;;;;;;4986373;28;20239;-35
2022/01/25 07:46:16;;;;;;;13.32;10.55;;;;;;;;;;5002861;28;20227;-34
2022/01/25 07:48:47;;;;;;;11.73;10.38;;;;;;;;;;4974130;28;20323;-34
2022/01/25 07:51:14;;;;;;;12.25;10.70;;;;;;;;;;4983173;28;20674;-34
2022/01/25 07:53:43;;;;;;;14.85;10.60;;;;;;;;;;4993301;28;20232;-35
2022/01/25 07:56:10;;;;;;;11.50;10.30;;;;;;;;;;4993683;28;20959;-34
2022/01/25 07:58:37;;;;;;;11.75;10.55;;;;;;;;;;4993493;28;20726;-35
2022/01/25 08:01:04;;;;;;;11.93;10.52;;;;;;;;;;4994037;28;20667;-33
2022/01/25 08:03:31;;;;;;;13.23;10.00;;;;;;;;;;4992908;28;20722;-34
2022/01/25 08:06:03;;;;;;;13.27;10.23;;;;;;;;;;4990699;28;20283;-37
2022/01/25 08:08:53;;;;;;;15.90;10.82;;;;;;;;;;4977950;28;20758;-36
2022/01/25 08:11:34;;;;;;;12.30;10.50;;;;;;;;;;4991608;28;20813;-37
2022/01/25 08:14:18;;;;;;;11.90;10.57;;;;;;;;;;4953142;28;20217;-37
2022/01/25 08:16:59;;;;;;;16.70;10.52;;;;;;;;;;4937308;28;20233;-36
2022/01/25 08:19:29;;;;;;;14.00;10.27;;;;;;;;;;4951528;28;20302;-36
2022/01/25 08:22:04;;;;;;;15.13;10.40;;;;;;;;;;4952064;28;20396;-36
2022/01/25 08:24:45;;;;;;;13.43;9.75;;;;;;;;;;4936192;28;20260;-36
2022/01/25 08:27:14;;;;;;;12.02;10.18;;;;;;;;;;4938983;28;20725;-37
2022/01/25 08:29:48;;;;;;;10.73;9.55;;;;;;;;;;4952484;28;20233;-37
2022/01/25 08:32:36;;;;;;;13.45;9.65;;;;;;;;;;4951138;28;20741;-36
2022/01/25 08:35:20;;;;;;;13.90;10.15;;;;;;;;;;4918727;28;20724;-34
2022/01/25 08:38:04;;;;;;;11.63;10.27;;;;;;;;;;4956028;28;20339;-37
2022/01/25 08:40:34;;;;;;;12.55;9.23;;;;;;;;;;4956095;28;21242;-35
2022/01/25 08:43:04;;;;;;;12.27;10.25;;;;;;;;;;4960223;28;20336;-34
2022/01/25 08:45:34;;;;;;;22.33;9.70;;;;;;;;;;4958411;28;20519;-44
2022/01/25 08:48:25;;;;;;;18.50;9.40;;;;;;;;;;4947475;28;21188;-45
2022/01/25 08:51:08;;;;;;;15.20;9.30;;;;;;;;;;4961990;28;20829;-44
2022/01/25 08:53:52;;;;;;;14.55;9.50;;;;;;;;;;4935244;28;21015;-44
2022/01/25 08:56:21;;;;;;;16.02;9.50;;;;;;;;;;4937645;28;20776;-44
2022/01/25 08:59:02;;;;;;;13.27;9.23;;;;;;;;;;4922655;29;20245;-45
2022/01/25 09:01:29;;;;;;;10.05;8.98;;;;;;;;;;4917381;28;20325;-44
2022/01/25 09:03:56;;;;;;;14.98;9.43;;;;;;;;;;4917311;29;20419;-43
2022/01/25 09:06:23;;;;;;;12.95;9.20;;;;;;;;;;4938450;28;20874;-40
2022/01/25 09:08:51;;;;;;;14.70;9.20;;;;;;;;;;4936520;28;20233;-44
2022/01/25 09:11:18;;;;;;;12.23;8.95;;;;;;;;;;4921732;28;21104;-45
2022/01/25 09:13:45;;;;;;;11.25;8.60;;;;;;;;;;4929511;28;20234;-44
2022/01/25 09:16:12;;;;;;;11.85;9.38;;;;;;;;;;4932457;28;20234;-43
2022/01/25 09:18:39;;;;;;;12.70;9.68;;;;;;;;;;4932723;28;20234;-43
2022/01/25 09:21:06;;;;;;;15.15;10.00;;;;;;;;;;4932305;29;20234;-44
2022/01/25 09:23:33;;;;;;;11.13;9.20;;;;;;;;;;4930498;28;20437;-44
2022/01/25 09:26:02;;;;;;;11.43;8.95;;;;;;;;;;4992094;28;20236;-44
2022/01/25 09:28:29;;;;;;;15.00;8.85;;;;;;;;;;4992349;28;20277;-41
2022/01/25 09:30:56;;;;;;;18.30;8.68;;;;;;;;;;4998568;28;20894;-44
2022/01/25 09:33:23;;;;;;;12.07;8.80;;;;;;;;;;4990371;28;20559;-44
2022/01/25 09:35:50;;;;;;;17.58;9.02;;;;;;;;;;4991803;28;20228;-44
2022/01/25 09:38:17;;;;;;;13.85;8.82;;;;;;;;;;4991860;28;20425;-43
2022/01/25 09:40:44;;;;;;;10.65;9.02;;;;;;;;;;4977441;28;20735;-42
2022/01/25 09:43:11;;;;;;;17.02;10.00;;;;;;;;;;4992109;28;20240;-45
2022/01/25 09:45:38;;;;;;;12.75;9.65;;;;;;;;;;4996398;28;20243;-44
2022/01/25 09:48:05;;;;;;;12.40;8.93;;;;;;;;;;4992501;28;20239;-44
2022/01/25 09:50:34;;;;;;;10.23;8.57;;;;;;;;;;4993229;28;20236;-39
2022/01/25 09:53:01;;;;;;;12.68;9.60;;;;;;;;;;4983327;28;20424;-36
2022/01/25 09:55:28;;;;;;;13.40;9.27;;;;;;;;;;4988303;28;20318;-35
2022/01/25 09:57:55;;;;;;;10.85;9.75;;;;;;;;;;4987876;28;20419;-36
2022/01/25 10:00:22;;;;;;;10.82;9.25;;;;;;;;;;4986971;28;20242;-35
2022/01/25 10:02:53;;;;;;;11.57;10.38;;;;;;;;;;4988070;28;20439;-34
2022/01/25 10:05:25;;;;;;;12.13;9.63;;;;;;;;;;4993617;28;20236;-35
2022/01/25 10:07:52;;;;;;;11.82;9.63;;;;;;;;;;4993621;28;20722;-35
2022/01/25 10:10:18;;;;;;;11.05;9.88;;;;;;;;;;4992856;28;20896;-36
2022/01/25 10:12:46;;;;;;;12.05;10.10;;;;;;;;;;4992215;28;20510;-35
2022/01/25 10:15:13;;;;;;;17.90;11.90;;;;;;;;;;4990693;28;20506;-36
2022/01/25 10:18:00;;;;;;;15.32;12.10;;;;;;;;;;4991606;28;20227;-34
2022/01/25 10:20:27;;;;;;;22.48;11.30;;;;;;;;;;4989779;28;20242;-35
2022/01/25 10:22:54;;;;;;;20.88;10.95;;;;;;;;;;4991763;28;20255;-36
2022/01/25 10:25:21;;;;;;;17.00;10.60;;;;;;;;;;4990073;28;20266;-35
2022/01/25 10:28:04;;;;;;;15.68;9.73;;;;;;;;;;4991063;28;20232;-37
2022/01/25 10:30:31;;;;;;;14.98;9.95;;;;;;;;;;4991020;28;20299;-35
2022/01/25 10:32:58;;;;;;;13.70;9.48;;;;;;;;;;4991487;28;20231;-34
2022/01/25 10:35:25;;;;;;;13.77;9.73;;;;;;;;;;4989708;28;20454;-35
2022/01/25 10:37:52;;;;;;;14.95;9.10;;;;;;;;;;4991734;28;20224;-35
2022/01/25 10:40:19;;;;;;;11.68;9.07;;;;;;;;;;4989924;28;20232;-35
2022/01/25 10:42:47;;;;;;;10.27;9.15;;;;;;;;;;4992045;28;20306;-35
2022/01/25 10:45:17;;;;;;;13.13;9.48;;;;;;;;;;4990618;28;20435;-36
2022/01/25 10:47:48;;;;;;;10.70;9.60;;;;;;;;;;4991371;28;20561;-35
2022/01/25 10:50:16;;;;;;;11.43;10.23;;;;;;;;;;4986974;28;20785;-35
2022/01/25 10:52:43;;;;;;;11.95;10.35;;;;;;;;;;4989160;28;20250;-35
2022/01/25 10:55:10;;;;;;;18.23;10.13;;;;;;;;;;4989990;28;20236;-35
2022/01/25 10:57:36;;;;;;;11.27;9.45;;;;;;;;;;4988883;28;20243;-36
2022/01/25 11:00:23;;;;;;;10.68;9.48;;;;;;;;;;4992394;28;20243;-36
2022/01/25 11:02:50;;;;;;;11.60;10.13;;;;;;;;;;4988752;28;20434;-36
2022/01/25 11:05:18;;;;;;;12.32;9.85;;;;;;;;;;4983995;28;20228;-36
2022/01/25 11:07:46;;;;;;;11.20;10.02;;;;;;;;;;4988542;28;20722;-37
2022/01/25 11:10:13;;;;;;;12.15;9.93;;;;;;;;;;4988220;28;20323;-37
2022/01/25 11:12:46;;;;;;;11.88;9.70;;;;;;;;;;4991599;28;20236;-36
2022/01/25 11:15:33;;;;;;;11.68;9.32;;;;;;;;;;4990358;28;20237;-33
2022/01/25 11:18:00;;;;;;;12.48;10.20;;;;;;;;;;4992921;28;22225;-35
2022/01/25 11:20:27;;;;;;;11.02;9.75;;;;;;;;;;4990388;28;20646;-37
2022/01/25 11:22:54;;;;;;;11.55;9.60;;;;;;;;;;4993155;28;20236;-36
2022/01/25 11:25:21;;;;;;;11.48;9.40;;;;;;;;;;4988130;28;20279;-36
2022/01/25 11:27:48;;;;;;;12.10;9.68;;;;;;;;;;4988781;28;20874;-34
2022/01/25 11:30:15;;;;;;;13.82;10.23;;;;;;;;;;4985783;28;20252;-36
2022/01/25 11:32:42;;;;;;;11.57;10.38;;;;;;;;;;4986025;28;20833;-35
2022/01/25 11:35:09;;;;;;;11.57;9.95;;;;;;;;;;4990656;28;20733;-37
2022/01/25 11:37:37;;;;;;;14.07;10.23;;;;;;;;;;4986221;28;20232;-37
2022/01/25 11:40:04;;;;;;;14.52;10.43;;;;;;;;;;4990434;28;20328;-36
2022/01/25 11:42:36;;;;;;;14.02;10.88;;;;;;;;;;4982921;28;20442;-34
2022/01/25 11:45:03;;;;;;;13.38;10.23;;;;;;;;;;4982349;28;20236;-36
2022/01/25 11:47:34;;;;;;;17.08;10.45;;;;;;;;;;4988460;28;21046;-38
2022/01/25 11:50:01;;;;;;;10.95;9.82;;;;;;;;;;4989426;28;21081;-38
2022/01/25 11:52:28;;;;;;;11.30;10.10;;;;;;;;;;4991168;28;20243;-38
2022/01/25 11:54:55;;;;;;;11.60;10.32;;;;;;;;;;4992679;28;20232;-39
2022/01/25 11:57:22;;;;;;;11.07;9.85;;;;;;;;;;4990982;28;20232;-37
2022/01/25 11:59:49;;;;;;;15.48;10.05;;;;;;;;;;4981640;28;20244;-38
2022/01/25 12:02:16;;;;;;;11.32;9.32;;;;;;;;;;4979426;28;21120;-38
2022/01/25 12:04:43;;;;;;;14.18;10.13;;;;;;;;;;4986141;28;20236;-39
2022/01/25 12:07:22;;;;;;;14.70;10.63;;;;;;;;;;4992801;28;20649;-37
2022/01/25 12:10:01;;;;;;;14.23;10.35;;;;;;;;;;4988358;28;20942;-38
2022/01/25 12:12:28;;;;;;;16.33;11.93;;;;;;;;;;4993517;28;20457;-45
2022/01/25 12:14:56;;;;;;;17.35;13.10;;;;;;;;;;4991921;28;20460;-45
2022/01/25 12:17:24;;;;;;;15.48;13.40;;;;;;;;;;4994748;28;20326;-46
2022/01/25 12:19:52;;;;;;;14.80;12.80;;;;;;;;;;4993307;28;20242;-45
2022/01/25 12:22:19;;;;;;;18.25;12.48;;;;;;;;;;4991659;28;20720;-44
2022/01/25 12:24:50;;;;;;;16.27;11.88;;;;;;;;;;4992979;28;21044;-45
2022/01/25 12:27:29;;;;;;;19.25;12.32;;;;;;;;;;4991454;28;20235;-44
2022/01/25 12:29:56;;;;;;;15.25;11.45;;;;;;;;;;4973253;28;20315;-44
2022/01/25 12:32:24;;;;;;;12.90;11.52;;;;;;;;;;5000161;28;20228;-46
2022/01/25 12:34:51;;;;;;;12.70;11.40;;;;;;;;;;4991692;28;21076;-46
2022/01/25 12:37:18;;;;;;;17.08;11.90;;;;;;;;;;4982661;28;20979;-45
2022/01/25 12:39:45;;;;;;;12.50;11.27;;;;;;;;;;4992464;28;20246;-45
2022/01/25 12:42:12;;;;;;;13.15;10.88;;;;;;;;;;4992919;28;20232;-45
2022/01/25 12:44:39;;;;;;;13.40;11.52;;;;;;;;;;4992490;28;20247;-46
2022/01/25 12:47:06;;;;;;;16.17;11.65;;;;;;;;;;5007948;28;20657;-45
2022/01/25 12:49:33;;;;;;;12.57;11.25;;;;;;;;;;4992613;28;20245;-45
2022/01/25 12:52:00;;;;;;;15.40;11.38;;;;;;;;;;4992518;28;20228;-44
2022/01/25 12:54:28;;;;;;;14.55;11.20;;;;;;;;;;4991645;28;20224;-45
2022/01/25 12:56:57;;;;;;;11.98;10.77;;;;;;;;;;4992571;28;20235;-45
2022/01/25 12:59:24;;;;;;;13.93;11.00;;;;;;;;;;4991228;28;20236;-45
2022/01/25 13:01:54;;;;;;;16.17;11.15;;;;;;;;;;5006862;28;20238;-45
2022/01/25 13:04:21;;;;;;;14.18;11.68;;;;;;;;;;4995342;28;20340;-46
2022/01/25 13:06:50;;;;;;;13.52;11.75;;;;;;;;;;4992315;28;20236;-46
2022/01/25 13:09:26;;;;;;;12.63;11.32;;;;;;;;;;4991504;28;20322;-45
2022/01/25 13:16:53;;;;;;;13.57;12.18;;;;;;;;;;5006533;28;20238;-46
2022/01/25 13:19:21;;;;;;;12.90;11.60;;;;;;;;;;4991977;28;20232;-45
2022/01/25 13:21:48;;;;;;;12.50;11.07;;;;;;;;;;4991750;28;20228;-45
2022/01/25 13:24:35;;;;;;;14.45;12.23;;;;;;;;;;4991883;28;20240;-44
2022/01/25 13:27:02;;;;;;;13.82;11.68;;;;;;;;;;4992195;28;20762;-45
2022/01/25 13:32:16;;;;;;;24.80;18.63;;;;;;;;;;4991632;28;20236;-46
2022/01/25 13:34:43;;;;;;;21.92;17.38;;;;;;;;;;4991562;28;20232;-46
2022/01/25 13:37:10;;;;;;;22.02;16.85;;;;;;;;;;4992422;28;20327;-46
2022/01/25 13:39:40;;;;;;;23.65;15.38;;;;;;;;;;4991375;28;20247;-46
2022/01/25 13:42:09;;;;;;;34.55;27.33;;;;;;;;;;4992800;28;20221;-46
2022/01/25 13:47:22;;;;;;;23.60;18.58;;;;;;;;;;5010713;28;20239;-47
2022/01/25 13:49:51;;;;;;;21.63;17.40;;;;;;;;;;4985596;28;20423;-47
2022/01/25 13:52:18;;;;;;;21.63;15.65;;;;;;;;;;4993305;28;20232;-47
2022/01/25 13:54:45;;;;;;;17.33;14.85;;;;;;;;;;4996442;28;20223;-47
2022/01/25 13:57:13;;;;;;;18.00;14.60;;;;;;;;;;4992813;28;20243;-47
2022/01/25 13:59:41;;;;;;;20.60;15.20;;;;;;;;;;4984705;28;20431;-33
2022/01/25 14:02:08;;;;;;;24.37;15.27;;;;;;;;;;4988238;28;20423;-41
2022/01/25 14:04:38;;;;;;;21.45;13.90;;;;;;;;;;4987881;28;20240;-42
2022/01/25 14:07:05;;;;;;;20.95;13.30;;;;;;;;;;4986963;28;20228;-41
2022/01/25 14:09:35;;;;;;;17.27;13.05;;;;;;;;;;4977268;28;20755;-41
2022/01/25 14:25:29;;;;;;;20.80;12.10;;;;;;;;;;4990414;28;20330;-42
2022/01/25 14:27:57;;;;;;;16.52;12.75;;;;;;;;;;4987181;28;20243;-45
2022/01/25 14:30:24;;;;;;;18.50;12.63;;;;;;;;;;4990225;28;20236;-43
2022/01/25 14:32:51;;;;;;;15.40;12.15;;;;;;;;;;4990311;28;20243;-43
2022/01/25 14:35:18;;;;;;;15.30;12.32;;;;;;;;;;4987250;28;20926;-37
2022/01/25 14:37:46;;;;;;;16.23;12.45;;;;;;;;;;4981798;28;20237;-40
2022/01/25 14:40:13;;;;;;;15.98;12.65;;;;;;;;;;4988515;28;20331;-43
2022/01/25 14:42:40;;;;;;;14.23;12.32;;;;;;;;;;4987703;28;20243;-38
2022/01/25 14:45:07;;;;;;;14.45;12.02;;;;;;;;;;4987140;28;20239;-40
2022/01/25 14:47:38;;;;;;;16.10;12.57;;;;;;;;;;4987318;28;20761;-42
2022/01/25 14:50:07;;;;;;;19.02;12.90;;;;;;;;;;4987730;28;20680;-42
2022/01/25 14:52:34;;;;;;;16.60;13.57;;;;;;;;;;4986798;28;20241;-44
2022/01/25 14:55:01;;;;;;;16.70;13.32;;;;;;;;;;4987890;28;20224;-43
2022/01/25 14:57:38;;;;;;;17.70;12.95;;;;;;;;;;4987830;28;20322;-41
2022/01/25 15:00:05;;;;;;;19.45;13.45;;;;;;;;;;4989764;28;21206;-39
2022/01/25 15:02:33;;;;;;;17.20;13.00;;;;;;;;;;4996134;28;20765;-39
2022/01/25 15:05:02;;;;;;;17.88;13.15;;;;;;;;;;4990246;28;20883;-44
2022/01/25 15:07:34;;;;;;;14.77;12.52;;;;;;;;;;4992298;28;20228;-43
2022/01/25 15:10:03;;;;;;;15.80;12.55;;;;;;;;;;4986800;28;20244;-39
2022/01/25 15:12:35;;;;;;;20.77;12.77;;;;;;;;;;4990382;28;20247;-44
2022/01/25 15:17:29;;;;;;;19.70;14.60;;;;;;;;;;4986457;28;20224;-43
2022/01/25 15:19:56;;;;;;;18.45;14.23;;;;;;;;;;4989360;28;20236;-43
2022/01/25 15:22:25;;;;;;;20.73;15.45;;;;;;;;;;4990201;28;20798;-43
2022/01/25 15:24:52;;;;;;;17.27;14.10;;;;;;;;;;4988355;28;20240;-44
2022/01/25 15:27:22;;;;;;;17.92;14.30;;;;;;;;;;4989913;28;20733;-43
2022/01/25 15:29:49;;;;;;;19.85;14.95;;;;;;;;;;4991192;28;20240;-43
2022/01/25 15:32:16;;;;;;;16.63;13.93;;;;;;;;;;4988026;28;20739;-41
2022/01/25 15:34:43;;;;;;;16.73;13.88;;;;;;;;;;4992204;28;20315;-44
2022/01/25 15:37:12;;;;;;;20.15;15.02;;;;;;;;;;4986956;28;20598;-37
2022/01/25 15:39:39;;;;;;;20.90;15.30;;;;;;;;;;4987595;28;20224;-38
2022/01/25 15:42:07;;;;;;;18.92;14.02;;;;;;;;;;4988727;28;20229;-39
2022/01/25 15:44:45;;;;;;;20.15;14.25;;;;;;;;;;4989121;28;20244;-43
2022/01/25 15:47:12;;;;;;;17.95;15.38;;;;;;;;;;4992398;28;21125;-35
2022/01/25 15:49:39;;;;;;;19.20;14.70;;;;;;;;;;4988193;28;20240;-39
2022/01/25 15:52:06;;;;;;;18.05;14.57;;;;;;;;;;4990113;28;21029;-36
2022/01/25 15:54:33;;;;;;;20.05;14.15;;;;;;;;;;4987029;28;20255;-33
2022/01/25 15:57:00;;;;;;;18.88;15.23;;;;;;;;;;4989848;28;20236;-43
2022/01/25 15:59:27;;;;;;;22.00;15.32;;;;;;;;;;4988812;28;20236;-38
2022/01/25 16:01:54;;;;;;;17.92;14.57;;;;;;;;;;4989647;28;20755;-37
2022/01/25 16:04:21;;;;;;;17.37;14.40;;;;;;;;;;4988668;28;20459;-40
2022/01/25 16:06:49;;;;;;;17.83;15.45;;;;;;;;;;4988588;28;20443;-35
2022/01/25 16:09:16;;;;;;;22.30;15.70;;;;;;;;;;4989012;28;20768;-35
2022/01/25 16:11:44;;;;;;;19.88;15.82;;;;;;;;;;4989252;28;20244;-39
2022/01/25 16:14:11;;;;;;;21.13;15.25;;;;;;;;;;4989262;28;20324;-35